• Join FlightAware (Why Join?)
  • Login
  • US Flag 
10:25PM EDT


 

Airport Tracker/Info


-or-


 

Live Flight TrackerFlight Track Log ✈ N6ZQ ✈ 03-Nov-2013 ✈ 1H0 - KRMN

Flight Track Log - Related Links

Times and Time Zones

All times are in EST time to prevent confusion due to time zone crossing. See the N6ZQ flight status page for this flight to view local times or setup timezone preferences in your user account.

Time Position Orientation Groundspeed Altitude Reporting Facility
EST Latitude Longitude Course Direction KTS MPH feet Rate Location/Type
01:41PM 38.6167 -90.4500 74° East 170 196 1,500  Level Gateway (St. Louis) TRACON
01:41PM 38.5833 -90.4333 159° South 169 194 2,200 900 Climbing Gateway (St. Louis) TRACON
01:42PM 38.5500 -90.4000 142° Southeast 168 193 3,200 1,020 Climbing Gateway (St. Louis) TRACON
01:43PM 38.5336 -90.3953 167° South 170 196 3,700 1,320 Climbing Kansas City Center
01:44PM 38.5228 -90.3367 103° East 152 175 5,300 1,260 Climbing Kansas City Center
01:45PM 38.5178 -90.2803 96° East 155 178 6,400 1,140 Climbing Kansas City Center
01:46PM 38.7385 -90.1000 74° East  Level Estimated
01:46PM 38.5133 -90.2222 96° East 161 185 7,700  Level Kansas City Center
01:47PM 38.5081 -90.1578 96° East 161 185 8,900 1,020 Climbing Kansas City Center
01:48PM 38.5025 -90.0956 96° East 170 196 9,900 900 Climbing Kansas City Center
01:49PM 38.4972 -90.0311 96° East 178 205 10,800 900 Climbing Kansas City Center
01:50PM 38.4914 -89.9653 96° East 179 206 11,800 840 Climbing Kansas City Center
01:51PM 38.4856 -89.9017 97° East 180 207 12,600 720 Climbing Kansas City Center
01:52PM 38.4803 -89.8378 96° East 182 209 13,400 720 Climbing Kansas City Center
01:53PM 38.4744 -89.7736 97° East 182 209 14,100 720 Climbing Kansas City Center
01:54PM 38.4678 -89.6939 96° East 185 213 15,000 720 Climbing Kansas City Center
01:55PM 38.4625 -89.6253 96° East 188 216 15,700 600 Climbing Kansas City Center
01:56PM 38.4564 -89.5583 97° East 190 219 16,300 540 Climbing Kansas City Center
01:57PM 38.4500 -89.4839 96° East 195 224 16,900 300 Climbing Kansas City Center
01:58PM 38.4431 -89.4119 97° East 203 234 17,000  Climbing Kansas City Center
01:59PM 38.4356 -89.3289 97° East 218 251 17,000  Level Kansas City Center
02:00PM 38.4286 -89.2522 97° East 217 250 17,000  Level Kansas City Center
02:01PM 38.4217 -89.1747 97° East 219 252 17,000  Level Kansas City Center
02:02PM 38.4244 -89.0911 88° East 219 252 17,000  Level Kansas City Center
02:04PM 38.4294 -89.0139 85° East 219 252 17,000  Level Kansas City Center
02:05PM 38.4342 -88.9328 86° East 215 247 17,000  Level Kansas City Center
02:06PM 38.4400 -88.8578 84° East 213 245 17,000  Level Kansas City Center
02:07PM 38.4442 -88.7764 86° East 213 245 17,000  Level Kansas City Center
02:08PM 38.4483 -88.7011 86° East 213 245 17,000  Level Kansas City Center
02:09PM 38.4511 -88.6239 87° East 213 245 17,000  Level Kansas City Center
02:10PM 38.4561 -88.5486 85° East 213 245 17,000  Level Kansas City Center
02:11PM 38.4600 -88.4731 86° East 213 245 17,000  Level Kansas City Center
02:12PM 38.4650 -88.3981 85° East 212 244 17,000  Level Kansas City Center
02:13PM 38.4706 -88.3228 85° East 212 244 17,000  Level Kansas City Center
02:14PM 38.4736 -88.2483 87° East 210 242 17,000  Level Kansas City Center
02:15PM 38.4786 -88.1592 86° East 210 242 17,000  Level Kansas City Center
02:16PM 38.4808 -88.1008 87° East 210 242 17,000  Level Indianapolis Center
02:17PM 38.4869 -88.0122 85° East 208 239 17,000  Level Indianapolis Center
02:18PM 38.4903 -87.9381 87° East 209 241 17,000  Level Indianapolis Center
02:19PM 38.4936 -87.8656 87° East 206 237 17,000  Level Indianapolis Center
02:20PM 38.4981 -87.7908 86° East 210 242 17,000  Level Indianapolis Center
02:21PM 38.5008 -87.7181 87° East 206 237 17,000  Level Indianapolis Center
02:22PM 38.5056 -87.6436 85° East 209 241 17,000  Level Indianapolis Center
02:23PM 38.5094 -87.5711 86° East 205 236 17,000  Level Indianapolis Center
02:24PM 38.5133 -87.4825 87° East 207 238 17,000  Level Indianapolis Center
02:25PM 38.5169 -87.4083 86° East 208 239 17,000  Level Indianapolis Center
02:26PM 38.5208 -87.3339 86° East 208 239 17,000  Level Indianapolis Center
02:27PM 38.5239 -87.2581 87° East 211 243 17,000  Level Indianapolis Center
02:28PM 38.5275 -87.1839 86° East 208 239 17,000  Level Indianapolis Center
02:29PM 38.5311 -87.1092 86° East 209 241 17,000  Level Indianapolis Center
02:30PM 38.5344 -87.0339 87° East 209 241 17,000  Level Indianapolis Center
02:31PM 38.5375 -86.9589 87° East 210 242 17,000  Level Indianapolis Center
02:32PM 38.5411 -86.8833 86° East 210 242 17,000  Level Indianapolis Center
02:33PM 38.5453 -86.7928 87° East 211 243 17,000  Level Indianapolis Center
02:34PM 38.5478 -86.7189 87° East 208 239 17,000  Level Indianapolis Center
02:36PM 38.5508 -86.6442 87° East 210 242 17,000  Level Indianapolis Center
02:37PM 38.5544 -86.5697 86° East 210 242 17,000  Level Indianapolis Center
02:38PM 38.5567 -86.4961 88° East 207 238 17,000  Level Indianapolis Center
02:39PM 38.5597 -86.4203 87° East 212 244 17,000  Level Indianapolis Center
02:40PM 38.5636 -86.3464 86° East 210 242 17,000  Level Indianapolis Center
02:41PM 38.5656 -86.2725 88° East 208 239 17,000  Level Indianapolis Center
02:42PM 38.5703 -86.1819 86° East 210 242 17,000  Level Indianapolis Center
02:43PM 38.5728 -86.1072 88° East 209 241 17,000  Level Indianapolis Center
02:44PM 38.5753 -86.0322 88° East 210 242 17,000  Level Indianapolis Center
02:45PM 38.5775 -85.9564 88° East 213 245 17,000  Level Indianapolis Center
02:46PM 38.5803 -85.8819 87° East 211 243 17,000  Level Indianapolis Center
02:47PM 38.5836 -85.8075 87° East 210 242 17,000  Level Indianapolis Center
02:48PM 38.5861 -85.7314 88° East 213 245 17,000  Level Indianapolis Center
02:49PM 38.5892 -85.6406 88° East 213 245 17,000  Level Indianapolis Center
02:50PM 38.5892 -85.5656 90° East 212 244 17,000  Level Indianapolis Center
02:51PM 38.5903 -85.4894 89° East 213 245 17,000  Level Indianapolis Center
02:52PM 38.5903 -85.4139 90° East 212 244 17,000  Level Indianapolis Center
02:53PM 38.5906 -85.3381 90° East 213 245 17,000  Level Indianapolis Center
02:54PM 38.5917 -85.2622 89° East 213 245 17,000  Level Indianapolis Center
02:55PM 38.5922 -85.1803 89° East 211 243 17,000  Level Indianapolis Center
02:56PM 38.5931 -85.1036 89° East 214 246 17,000  Level Indianapolis Center
02:57PM 38.5939 -85.0147 89° East 214 246 17,000  Level Indianapolis Center
02:58PM 38.5942 -84.9394 90° East 213 245 17,000  Level Indianapolis Center
02:59PM 38.5950 -84.8647 89° East 211 243 17,000  Level Indianapolis Center
03:00PM 38.5967 -84.7889 88° East 213 245 17,000  Level Indianapolis Center
03:01PM 38.5983 -84.7144 88° East 211 243 17,000  Level Indianapolis Center
03:02PM 38.6000 -84.6267 89° East 212 244 17,000  Level Indianapolis Center
03:03PM 38.6000 -84.5508 90° East 213 245 17,000  Level Indianapolis Center
03:04PM 38.6017 -84.4753 88° East 213 245 17,000  Level Indianapolis Center
03:06PM 38.6039 -84.3983 88° East 216 249 17,000  Level Indianapolis Center
03:07PM 38.6044 -84.3231 89° East 214 246 17,000  Level Indianapolis Center
03:08PM 38.6039 -84.2478 91° East 213 245 17,000  Level Indianapolis Center
03:09PM 38.6047 -84.1564 89° East 219 252 17,000  Level Indianapolis Center
03:10PM 38.6033 -84.0808 91° East 215 247 17,000  Level Indianapolis Center
03:11PM 38.6033 -84.0042 90° East 215 247 17,000  Level Indianapolis Center
03:12PM 38.6028 -83.9292 91° East 212 244 17,000  Level Indianapolis Center
03:13PM 38.6019 -83.8522 91° East 215 247 17,000  Level Indianapolis Center
03:14PM 38.6028 -83.7647 89° East 211 243 17,000  Level Indianapolis Center
03:15PM 38.6017 -83.6892 91° East 212 244 17,000  Level Indianapolis Center
03:16PM 38.6011 -83.6136 91° East 212 244 17,000  Level Indianapolis Center
03:18PM 38.6003 -83.4614 90° East 215 247 17,000  Level Indianapolis Center
03:19PM 38.6000 -83.3867 90° East 212 244 17,000  Level Indianapolis Center
03:20PM 38.5986 -83.2975 91° East 214 246 17,000  Level Indianapolis Center
03:21PM 38.5986 -83.2214 90° East 213 245 17,000  Level Indianapolis Center
03:22PM 38.5978 -83.1461 91° East 212 244 17,000  Level Indianapolis Center
03:23PM 38.5961 -83.0692 92° East 215 247 17,000  Level Indianapolis Center
03:24PM 38.5956 -82.9939 91° East 214 246 17,000  Level Indianapolis Center
03:25PM 38.5936 -82.9058 92° East 212 244 17,000  Level Indianapolis Center
03:26PM 38.5931 -82.8308 91° East 211 243 17,000  Level Indianapolis Center
03:27PM 38.5928 -82.7544 90° East 213 245 17,000  Level Indianapolis Center
03:28PM 38.5908 -82.6789 92° East 213 245 17,000  Level Indianapolis Center
03:29PM 38.5903 -82.6028 91° East 214 246 17,000  Level Indianapolis Center
03:30PM 38.5892 -82.5258 91° East 215 247 17,000  Level Indianapolis Center
03:31PM 38.5875 -82.4506 92° East 213 245 17,000  Level Indianapolis Center
03:32PM 38.5861 -82.3747 91° East 214 246 17,000  Level Indianapolis Center
03:33PM 38.5850 -82.2833 91° East 213 245 17,000  Level Indianapolis Center
03:34PM 38.5836 -82.2086 91° East 211 243 17,000  Level Indianapolis Center
03:35PM 38.5817 -82.1328 92° East 212 244 17,000  Level Indianapolis Center
03:37PM 38.5808 -82.0578 91° East 211 243 17,000  Level Indianapolis Center
03:38PM 38.5792 -81.9831 92° East 211 243 17,000  Level Indianapolis Center
03:39PM 38.5772 -81.9078 92° East 211 243 17,000  Level Indianapolis Center
03:40PM 38.5761 -81.8331 91° East 211 243 17,000  Level Indianapolis Center
03:41PM 38.5742 -81.7425 92° East 213 245 17,000  Level Indianapolis Center
03:42PM 38.5725 -81.6686 92° East 211 243 17,000  Level Indianapolis Center
03:43PM 38.5703 -81.5942 92° East 211 243 17,000  Level Indianapolis Center
03:44PM 38.5686 -81.5194 92° East 213 245 17,000  Level Indianapolis Center
03:45PM 38.5669 -81.4444 92° East 213 245 17,000  Level Indianapolis Center
03:46PM 38.5653 -81.3544 91° East 213 245 17,000  Level Indianapolis Center
03:47PM 38.5625 -81.2778 93° East 215 247 17,000  Level Indianapolis Center
03:48PM 38.5597 -81.2003 93° East 218 251 17,000  Level Indianapolis Center
03:49PM 38.5586 -81.1256 91° East 212 244 17,000  Level Indianapolis Center
03:50PM 38.5561 -81.0497 92° East 214 246 17,000  Level Indianapolis Center
03:51PM 38.5536 -80.9728 92° East 216 249 17,000  Level Indianapolis Center
03:52PM 38.5517 -80.8978 92° East 212 244 17,000  Level Indianapolis Center
03:53PM 38.5483 -80.8050 93° East 216 249 17,000  Level Indianapolis Center
03:54PM 38.5464 -80.7286 92° East 216 249 17,000  Level Indianapolis Center
03:55PM 38.5439 -80.6522 92° East 215 247 17,000  Level Indianapolis Center
03:56PM 38.5422 -80.5758 92° East 214 246 17,000  Level Indianapolis Center
03:57PM 38.5394 -80.5003 93° East 213 245 17,000  Level Indianapolis Center
03:58PM 38.5358 -80.4156 93° East 216 249 17,100  Climbing Indianapolis Center
03:59PM 38.5344 -80.3417 91° East 215 247 17,100 -60 Level Indianapolis Center
04:00PM 38.5325 -80.2683 92° East 216 249 17,000 -60 Descending Washington Center
04:01PM 38.5289 -80.1992 94° East 216 249 17,000  Level Washington Center
04:02PM 38.5278 -80.1219 91° East 216 249 17,000  Level Washington Center
04:03PM 38.5244 -80.0450 93° East 216 249 17,000  Level Washington Center
04:04PM 38.5231 -79.9706 91° East 216 249 17,000  Level Washington Center
04:05PM 38.5178 -79.8853 94° East 216 249 17,000  Level Washington Center
04:06PM 38.5161 -79.8108 92° East 216 249 17,000  Level Washington Center
04:07PM 38.5125 -79.7364 94° East 216 249 17,000  Level Washington Center
04:08PM 38.5111 -79.6592 91° East 216 249 17,000  Level Washington Center
04:09PM 38.5072 -79.5822 94° East 216 249 17,000  Level Washington Center
04:10PM 38.5033 -79.5156 94° East 216 249 17,000 -60 Level Washington Center
04:11PM 38.5017 -79.4386 92° East 216 249 16,900 -300 Descending Washington Center
04:12PM 38.4981 -79.3561 93° East 222 255 16,400 -600 Descending Washington Center
04:13PM 38.4944 -79.2711 93° East 227 261 15,800 -720 Descending Washington Center
04:14PM 38.4908 -79.1781 93° East 234 269 15,000 -720 Descending Washington Center
04:15PM 38.4853 -79.0903 95° East 234 269 14,400 -600 Descending Washington Center
04:16PM 38.4814 -79.0025 93° East 239 275 13,800 -600 Descending Washington Center
04:17PM 38.4775 -78.9147 93° East 239 275 13,200 -600 Descending Washington Center
04:18PM 38.4736 -78.8350 94° East 244 281 12,600 -660 Descending Washington Center
04:19PM 38.4694 -78.7528 94° East 239 275 11,900 -720 Descending Washington Center
04:20PM 38.4653 -78.6703 94° East 239 275 11,200 -720 Descending Washington Center
04:21PM 38.4614 -78.5853 93° East 239 275 10,500 -780 Descending Washington Center
04:22PM 38.4550 -78.4975 95° East 239 275 9,700 -840 Descending Washington Center
04:23PM 38.4508 -78.4100 93° East 239 275 8,900 -900 Descending Washington Center
04:25PM 38.4333 -78.2167 97° East 230 265 6,900 -840 Descending Potomac TRACON
04:26PM 38.4333 -78.1333 90° East 224 258 6,200 -660 Descending Potomac TRACON
04:27PM 38.4333 -78.0667 90° East 220 253 5,600 -600 Descending Potomac TRACON
04:28PM 38.4333 -77.9833 90° East 206 237 5,100 -600 Descending Potomac TRACON
04:29PM 38.4167 -77.9167 108° East 206 237 4,500 -600 Descending Potomac TRACON